sensor_id;sensor_type;location;lat;lon;timestamp;P1;durP1;ratioP1;P2;durP2;ratioP2
12482;SDS011;6306;47.134;15.344;2023-04-08T00:02:03;13.67;;;8.27;;
12482;SDS011;6306;47.134;15.344;2023-04-08T00:04:30;12.93;;;8.37;;
12482;SDS011;6306;47.134;15.344;2023-04-08T00:06:56;13.10;;;7.77;;
12482;SDS011;6306;47.134;15.344;2023-04-08T00:09:22;15.60;;;9.83;;
12482;SDS011;6306;47.134;15.344;2023-04-08T00:11:48;14.00;;;9.60;;
12482;SDS011;6306;47.134;15.344;2023-04-08T00:14:14;11.70;;;8.60;;
12482;SDS011;6306;47.134;15.344;2023-04-08T00:16:40;15.37;;;9.70;;
12482;SDS011;6306;47.134;15.344;2023-04-08T00:19:06;10.67;;;8.07;;
12482;SDS011;6306;47.134;15.344;2023-04-08T00:21:32;13.97;;;8.13;;
12482;SDS011;6306;47.134;15.344;2023-04-08T00:23:58;12.20;;;8.43;;
12482;SDS011;6306;47.134;15.344;2023-04-08T00:26:24;11.70;;;8.30;;
12482;SDS011;6306;47.134;15.344;2023-04-08T00:28:50;14.83;;;10.00;;
12482;SDS011;6306;47.134;15.344;2023-04-08T00:31:16;10.60;;;9.00;;
12482;SDS011;6306;47.134;15.344;2023-04-08T00:33:42;12.40;;;9.10;;
12482;SDS011;6306;47.134;15.344;2023-04-08T00:36:08;10.73;;;8.60;;
12482;SDS011;6306;47.134;15.344;2023-04-08T00:38:34;9.20;;;7.50;;
12482;SDS011;6306;47.134;15.344;2023-04-08T00:41:00;12.43;;;8.20;;
12482;SDS011;6306;47.134;15.344;2023-04-08T00:43:26;10.40;;;8.40;;
12482;SDS011;6306;47.134;15.344;2023-04-08T00:45:52;11.07;;;8.07;;
12482;SDS011;6306;47.134;15.344;2023-04-08T00:48:18;14.87;;;9.70;;
12482;SDS011;6306;47.134;15.344;2023-04-08T00:50:44;11.60;;;9.17;;
12482;SDS011;6306;47.134;15.344;2023-04-08T00:53:12;15.23;;;10.20;;
12482;SDS011;6306;47.134;15.344;2023-04-08T00:55:38;11.30;;;8.40;;
12482;SDS011;6306;47.134;15.344;2023-04-08T00:58:04;13.30;;;8.90;;
12482;SDS011;6306;47.134;15.344;2023-04-08T01:00:30;14.63;;;10.43;;
12482;SDS011;6306;47.134;15.344;2023-04-08T01:03:01;13.17;;;9.80;;
12482;SDS011;6306;47.134;15.344;2023-04-08T01:08:22;11.93;;;8.80;;
12482;SDS011;6306;47.134;15.344;2023-04-08T01:10:50;15.83;;;9.47;;
12482;SDS011;6306;47.134;15.344;2023-04-08T01:13:17;11.50;;;9.03;;
12482;SDS011;6306;47.134;15.344;2023-04-08T01:15:44;9.80;;;7.67;;
12482;SDS011;6306;47.134;15.344;2023-04-08T01:18:11;23.50;;;11.80;;
12482;SDS011;6306;47.134;15.344;2023-04-08T01:20:39;14.43;;;9.80;;
12482;SDS011;6306;47.134;15.344;2023-04-08T01:25:37;12.37;;;8.03;;
12482;SDS011;6306;47.134;15.344;2023-04-08T01:28:04;13.40;;;9.67;;
12482;SDS011;6306;47.134;15.344;2023-04-08T01:30:31;13.57;;;9.03;;
12482;SDS011;6306;47.134;15.344;2023-04-08T01:32:58;10.97;;;7.40;;
12482;SDS011;6306;47.134;15.344;2023-04-08T01:35:26;12.07;;;8.07;;
12482;SDS011;6306;47.134;15.344;2023-04-08T01:37:53;11.80;;;7.77;;
12482;SDS011;6306;47.134;15.344;2023-04-08T01:40:20;8.43;;;7.37;;
12482;SDS011;6306;47.134;15.344;2023-04-08T01:42:46;10.50;;;7.77;;
12482;SDS011;6306;47.134;15.344;2023-04-08T01:45:13;11.30;;;9.13;;
12482;SDS011;6306;47.134;15.344;2023-04-08T01:47:39;16.67;;;9.13;;
12482;SDS011;6306;47.134;15.344;2023-04-08T01:50:06;15.63;;;8.77;;
12482;SDS011;6306;47.134;15.344;2023-04-08T01:52:34;12.43;;;8.57;;
12482;SDS011;6306;47.134;15.344;2023-04-08T01:55:00;13.93;;;7.87;;
12482;SDS011;6306;47.134;15.344;2023-04-08T01:57:26;11.50;;;8.93;;
12482;SDS011;6306;47.134;15.344;2023-04-08T01:59:55;10.87;;;8.13;;
12482;SDS011;6306;47.134;15.344;2023-04-08T02:02:22;10.97;;;8.57;;
12482;SDS011;6306;47.134;15.344;2023-04-08T02:04:49;13.47;;;9.60;;
12482;SDS011;6306;47.134;15.344;2023-04-08T02:07:15;11.93;;;8.80;;
12482;SDS011;6306;47.134;15.344;2023-04-08T02:09:42;10.33;;;8.47;;
12482;SDS011;6306;47.134;15.344;2023-04-08T02:12:08;13.37;;;8.27;;
12482;SDS011;6306;47.134;15.344;2023-04-08T02:14:34;10.83;;;8.63;;
12482;SDS011;6306;47.134;15.344;2023-04-08T02:17:04;10.60;;;8.20;;
12482;SDS011;6306;47.134;15.344;2023-04-08T02:22:07;14.47;;;9.43;;
12482;SDS011;6306;47.134;15.344;2023-04-08T02:24:35;10.80;;;9.00;;
12482;SDS011;6306;47.134;15.344;2023-04-08T02:27:02;11.23;;;8.50;;
12482;SDS011;6306;47.134;15.344;2023-04-08T02:29:31;15.30;;;8.10;;
12482;SDS011;6306;47.134;15.344;2023-04-08T02:32:00;12.57;;;9.00;;
12482;SDS011;6306;47.134;15.344;2023-04-08T02:34:26;9.60;;;8.23;;
12482;SDS011;6306;47.134;15.344;2023-04-08T02:36:53;13.10;;;8.40;;
12482;SDS011;6306;47.134;15.344;2023-04-08T02:39:19;12.33;;;9.77;;
12482;SDS011;6306;47.134;15.344;2023-04-08T02:41:45;13.93;;;8.50;;
12482;SDS011;6306;47.134;15.344;2023-04-08T02:44:11;11.33;;;8.97;;
12482;SDS011;6306;47.134;15.344;2023-04-08T02:46:37;13.40;;;8.97;;
12482;SDS011;6306;47.134;15.344;2023-04-08T02:49:03;10.17;;;8.50;;
12482;SDS011;6306;47.134;15.344;2023-04-08T02:51:29;12.97;;;9.40;;
12482;SDS011;6306;47.134;15.344;2023-04-08T02:53:56;10.03;;;8.40;;
12482;SDS011;6306;47.134;15.344;2023-04-08T02:56:22;13.63;;;9.70;;
12482;SDS011;6306;47.134;15.344;2023-04-08T02:58:48;13.70;;;9.67;;
12482;SDS011;6306;47.134;15.344;2023-04-08T03:01:16;10.00;;;8.57;;
12482;SDS011;6306;47.134;15.344;2023-04-08T03:03:42;19.30;;;9.00;;
12482;SDS011;6306;47.134;15.344;2023-04-08T03:06:08;15.50;;;8.00;;
12482;SDS011;6306;47.134;15.344;2023-04-08T03:08:34;9.70;;;8.30;;
12482;SDS011;6306;47.134;15.344;2023-04-08T03:11:00;9.93;;;8.00;;
12482;SDS011;6306;47.134;15.344;2023-04-08T03:13:26;12.97;;;9.30;;
12482;SDS011;6306;47.134;15.344;2023-04-08T03:15:53;9.03;;;8.00;;
12482;SDS011;6306;47.134;15.344;2023-04-08T03:18:19;14.77;;;8.90;;
12482;SDS011;6306;47.134;15.344;2023-04-08T03:20:45;11.90;;;7.70;;
12482;SDS011;6306;47.134;15.344;2023-04-08T03:23:11;10.73;;;9.03;;
12482;SDS011;6306;47.134;15.344;2023-04-08T03:25:37;12.13;;;8.60;;
12482;SDS011;6306;47.134;15.344;2023-04-08T03:28:03;11.80;;;8.90;;
12482;SDS011;6306;47.134;15.344;2023-04-08T03:30:30;11.87;;;8.47;;
12482;SDS011;6306;47.134;15.344;2023-04-08T03:32:56;11.23;;;7.20;;
12482;SDS011;6306;47.134;15.344;2023-04-08T03:35:22;12.03;;;7.57;;
12482;SDS011;6306;47.134;15.344;2023-04-08T03:37:48;13.37;;;8.60;;
12482;SDS011;6306;47.134;15.344;2023-04-08T03:40:14;10.27;;;8.10;;
12482;SDS011;6306;47.134;15.344;2023-04-08T03:42:40;12.97;;;10.30;;
12482;SDS011;6306;47.134;15.344;2023-04-08T03:45:06;11.53;;;8.40;;
12482;SDS011;6306;47.134;15.344;2023-04-08T03:47:32;10.97;;;8.80;;
12482;SDS011;6306;47.134;15.344;2023-04-08T03:49:59;13.60;;;10.13;;
12482;SDS011;6306;47.134;15.344;2023-04-08T03:52:25;13.07;;;10.83;;
12482;SDS011;6306;47.134;15.344;2023-04-08T03:54:51;12.73;;;8.60;;
12482;SDS011;6306;47.134;15.344;2023-04-08T03:57:17;12.53;;;9.70;;
12482;SDS011;6306;47.134;15.344;2023-04-08T03:59:43;14.77;;;10.13;;
12482;SDS011;6306;47.134;15.344;2023-04-08T04:02:09;12.83;;;9.60;;
12482;SDS011;6306;47.134;15.344;2023-04-08T04:04:35;15.10;;;10.00;;
12482;SDS011;6306;47.134;15.344;2023-04-08T04:07:01;15.63;;;11.57;;
12482;SDS011;6306;47.134;15.344;2023-04-08T04:09:27;11.30;;;10.10;;
12482;SDS011;6306;47.134;15.344;2023-04-08T04:11:53;13.40;;;9.63;;
12482;SDS011;6306;47.134;15.344;2023-04-08T04:14:19;11.33;;;9.47;;
12482;SDS011;6306;47.134;15.344;2023-04-08T04:16:45;13.43;;;9.60;;
12482;SDS011;6306;47.134;15.344;2023-04-08T04:19:11;12.53;;;9.33;;
12482;SDS011;6306;47.134;15.344;2023-04-08T04:21:37;18.83;;;10.50;;
12482;SDS011;6306;47.134;15.344;2023-04-08T04:24:03;12.10;;;9.40;;
12482;SDS011;6306;47.134;15.344;2023-04-08T04:26:29;17.20;;;10.73;;
12482;SDS011;6306;47.134;15.344;2023-04-08T04:28:55;14.27;;;10.67;;
12482;SDS011;6306;47.134;15.344;2023-04-08T04:31:22;13.67;;;9.90;;
12482;SDS011;6306;47.134;15.344;2023-04-08T04:33:51;11.50;;;8.63;;
12482;SDS011;6306;47.134;15.344;2023-04-08T04:36:17;13.17;;;9.83;;
12482;SDS011;6306;47.134;15.344;2023-04-08T04:38:44;11.77;;;7.90;;
12482;SDS011;6306;47.134;15.344;2023-04-08T04:41:10;12.27;;;9.80;;
12482;SDS011;6306;47.134;15.344;2023-04-08T04:43:36;10.77;;;8.57;;
12482;SDS011;6306;47.134;15.344;2023-04-08T04:46:02;11.30;;;9.80;;
12482;SDS011;6306;47.134;15.344;2023-04-08T04:48:31;17.90;;;9.80;;
12482;SDS011;6306;47.134;15.344;2023-04-08T04:50:58;15.93;;;10.17;;
12482;SDS011;6306;47.134;15.344;2023-04-08T04:53:25;14.10;;;10.00;;
12482;SDS011;6306;47.134;15.344;2023-04-08T04:55:51;16.50;;;10.00;;
12482;SDS011;6306;47.134;15.344;2023-04-08T04:58:17;11.13;;;9.93;;
12482;SDS011;6306;47.134;15.344;2023-04-08T05:00:43;10.90;;;9.27;;
12482;SDS011;6306;47.134;15.344;2023-04-08T05:03:10;11.50;;;8.27;;
12482;SDS011;6306;47.134;15.344;2023-04-08T05:05:36;17.50;;;10.40;;
12482;SDS011;6306;47.134;15.344;2023-04-08T05:08:02;13.00;;;9.50;;
12482;SDS011;6306;47.134;15.344;2023-04-08T05:10:28;12.13;;;10.07;;
12482;SDS011;6306;47.134;15.344;2023-04-08T05:12:55;16.50;;;11.33;;
12482;SDS011;6306;47.134;15.344;2023-04-08T05:15:21;17.70;;;12.03;;
12482;SDS011;6306;47.134;15.344;2023-04-08T05:17:47;16.33;;;10.67;;
12482;SDS011;6306;47.134;15.344;2023-04-08T05:20:13;16.63;;;12.17;;
12482;SDS011;6306;47.134;15.344;2023-04-08T05:22:39;16.03;;;12.17;;
12482;SDS011;6306;47.134;15.344;2023-04-08T05:25:06;19.53;;;13.43;;
12482;SDS011;6306;47.134;15.344;2023-04-08T05:27:32;13.70;;;11.27;;
12482;SDS011;6306;47.134;15.344;2023-04-08T05:29:59;21.40;;;11.77;;
12482;SDS011;6306;47.134;15.344;2023-04-08T05:32:25;12.63;;;11.00;;
12482;SDS011;6306;47.134;15.344;2023-04-08T05:34:52;11.47;;;10.27;;
12482;SDS011;6306;47.134;15.344;2023-04-08T05:37:18;14.47;;;11.73;;
12482;SDS011;6306;47.134;15.344;2023-04-08T05:39:44;14.00;;;10.80;;
12482;SDS011;6306;47.134;15.344;2023-04-08T05:42:10;19.80;;;13.10;;
12482;SDS011;6306;47.134;15.344;2023-04-08T05:44:37;13.63;;;12.20;;
12482;SDS011;6306;47.134;15.344;2023-04-08T05:47:05;13.87;;;11.03;;
12482;SDS011;6306;47.134;15.344;2023-04-08T05:49:32;14.33;;;12.80;;
12482;SDS011;6306;47.134;15.344;2023-04-08T05:51:58;20.83;;;14.63;;
12482;SDS011;6306;47.134;15.344;2023-04-08T05:54:24;23.70;;;14.37;;
12482;SDS011;6306;47.134;15.344;2023-04-08T05:56:50;20.90;;;14.63;;
12482;SDS011;6306;47.134;15.344;2023-04-08T05:59:16;17.10;;;13.27;;
12482;SDS011;6306;47.134;15.344;2023-04-08T06:01:42;21.27;;;15.20;;
12482;SDS011;6306;47.134;15.344;2023-04-08T06:04:08;16.40;;;12.00;;
12482;SDS011;6306;47.134;15.344;2023-04-08T06:06:36;18.83;;;13.60;;
12482;SDS011;6306;47.134;15.344;2023-04-08T06:09:03;19.53;;;14.17;;
12482;SDS011;6306;47.134;15.344;2023-04-08T06:11:29;20.23;;;13.30;;
12482;SDS011;6306;47.134;15.344;2023-04-08T06:13:55;16.40;;;13.47;;
12482;SDS011;6306;47.134;15.344;2023-04-08T06:16:21;17.17;;;14.30;;
12482;SDS011;6306;47.134;15.344;2023-04-08T06:18:47;18.30;;;13.53;;
12482;SDS011;6306;47.134;15.344;2023-04-08T06:21:13;18.07;;;13.50;;
12482;SDS011;6306;47.134;15.344;2023-04-08T06:23:40;17.50;;;12.90;;
12482;SDS011;6306;47.134;15.344;2023-04-08T06:26:06;23.97;;;14.50;;
12482;SDS011;6306;47.134;15.344;2023-04-08T06:28:32;17.07;;;13.27;;
12482;SDS011;6306;47.134;15.344;2023-04-08T06:30:58;19.57;;;14.73;;
12482;SDS011;6306;47.134;15.344;2023-04-08T06:33:24;23.07;;;15.07;;
12482;SDS011;6306;47.134;15.344;2023-04-08T06:35:50;16.53;;;13.17;;
12482;SDS011;6306;47.134;15.344;2023-04-08T06:38:16;19.40;;;14.30;;
12482;SDS011;6306;47.134;15.344;2023-04-08T06:40:42;19.90;;;14.47;;
12482;SDS011;6306;47.134;15.344;2023-04-08T06:43:08;17.50;;;13.60;;
12482;SDS011;6306;47.134;15.344;2023-04-08T06:45:34;20.07;;;13.50;;
12482;SDS011;6306;47.134;15.344;2023-04-08T06:48:00;18.57;;;15.23;;
12482;SDS011;6306;47.134;15.344;2023-04-08T06:50:26;18.90;;;14.00;;
12482;SDS011;6306;47.134;15.344;2023-04-08T06:52:52;16.53;;;14.60;;
12482;SDS011;6306;47.134;15.344;2023-04-08T06:55:19;22.60;;;14.77;;
12482;SDS011;6306;47.134;15.344;2023-04-08T06:57:45;18.97;;;13.67;;
12482;SDS011;6306;47.134;15.344;2023-04-08T07:00:11;19.50;;;13.63;;
12482;SDS011;6306;47.134;15.344;2023-04-08T07:02:37;18.80;;;14.23;;
12482;SDS011;6306;47.134;15.344;2023-04-08T07:05:03;18.50;;;14.20;;
12482;SDS011;6306;47.134;15.344;2023-04-08T07:07:29;18.33;;;13.40;;
12482;SDS011;6306;47.134;15.344;2023-04-08T07:09:56;16.60;;;13.13;;
12482;SDS011;6306;47.134;15.344;2023-04-08T07:12:22;17.27;;;13.40;;
12482;SDS011;6306;47.134;15.344;2023-04-08T07:14:48;20.23;;;15.17;;
12482;SDS011;6306;47.134;15.344;2023-04-08T07:17:14;18.90;;;14.23;;
12482;SDS011;6306;47.134;15.344;2023-04-08T07:19:40;20.10;;;14.03;;
12482;SDS011;6306;47.134;15.344;2023-04-08T07:22:06;20.30;;;14.27;;
12482;SDS011;6306;47.134;15.344;2023-04-08T07:24:32;19.10;;;14.03;;
12482;SDS011;6306;47.134;15.344;2023-04-08T07:26:58;21.10;;;13.53;;
12482;SDS011;6306;47.134;15.344;2023-04-08T07:29:24;20.27;;;13.80;;
12482;SDS011;6306;47.134;15.344;2023-04-08T07:31:50;20.10;;;14.23;;
12482;SDS011;6306;47.134;15.344;2023-04-08T07:34:16;18.70;;;13.97;;
12482;SDS011;6306;47.134;15.344;2023-04-08T07:36:42;18.50;;;13.73;;
12482;SDS011;6306;47.134;15.344;2023-04-08T07:39:08;21.10;;;14.37;;
12482;SDS011;6306;47.134;15.344;2023-04-08T07:41:34;18.60;;;14.37;;
12482;SDS011;6306;47.134;15.344;2023-04-08T07:44:00;19.97;;;14.03;;
12482;SDS011;6306;47.134;15.344;2023-04-08T07:46:26;16.80;;;13.37;;
12482;SDS011;6306;47.134;15.344;2023-04-08T07:48:52;18.50;;;12.53;;
12482;SDS011;6306;47.134;15.344;2023-04-08T07:51:18;23.10;;;14.30;;
12482;SDS011;6306;47.134;15.344;2023-04-08T07:53:44;17.70;;;13.13;;
12482;SDS011;6306;47.134;15.344;2023-04-08T07:56:13;17.90;;;14.40;;
12482;SDS011;6306;47.134;15.344;2023-04-08T07:58:42;18.53;;;13.30;;
12482;SDS011;6306;47.134;15.344;2023-04-08T08:01:15;21.50;;;14.40;;
12482;SDS011;6306;47.134;15.344;2023-04-08T08:03:42;17.20;;;13.50;;
12482;SDS011;6306;47.134;15.344;2023-04-08T08:06:10;18.30;;;13.13;;
12482;SDS011;6306;47.134;15.344;2023-04-08T08:08:36;17.27;;;13.17;;
12482;SDS011;6306;47.134;15.344;2023-04-08T08:11:02;15.03;;;12.90;;
12482;SDS011;6306;47.134;15.344;2023-04-08T08:13:28;21.03;;;15.13;;
12482;SDS011;6306;47.134;15.344;2023-04-08T08:15:54;19.37;;;13.67;;
12482;SDS011;6306;47.134;15.344;2023-04-08T08:18:21;15.23;;;12.70;;
12482;SDS011;6306;47.134;15.344;2023-04-08T08:20:47;17.33;;;13.93;;
12482;SDS011;6306;47.134;15.344;2023-04-08T08:23:13;19.97;;;12.27;;
12482;SDS011;6306;47.134;15.344;2023-04-08T08:25:39;23.17;;;13.40;;
12482;SDS011;6306;47.134;15.344;2023-04-08T08:28:05;17.30;;;14.90;;
12482;SDS011;6306;47.134;15.344;2023-04-08T08:30:31;18.60;;;13.33;;
12482;SDS011;6306;47.134;15.344;2023-04-08T08:32:57;17.07;;;12.73;;
12482;SDS011;6306;47.134;15.344;2023-04-08T08:35:24;19.47;;;13.40;;
12482;SDS011;6306;47.134;15.344;2023-04-08T08:37:50;18.37;;;13.90;;
12482;SDS011;6306;47.134;15.344;2023-04-08T08:40:16;17.63;;;12.70;;
12482;SDS011;6306;47.134;15.344;2023-04-08T08:42:49;16.77;;;13.67;;
12482;SDS011;6306;47.134;15.344;2023-04-08T08:45:16;14.10;;;12.50;;
12482;SDS011;6306;47.134;15.344;2023-04-08T08:47:43;16.07;;;12.00;;
12482;SDS011;6306;47.134;15.344;2023-04-08T08:50:09;16.60;;;13.40;;
12482;SDS011;6306;47.134;15.344;2023-04-08T08:52:35;15.83;;;13.40;;
12482;SDS011;6306;47.134;15.344;2023-04-08T08:55:01;16.87;;;13.20;;
12482;SDS011;6306;47.134;15.344;2023-04-08T08:57:27;15.90;;;13.27;;
12482;SDS011;6306;47.134;15.344;2023-04-08T08:59:53;12.80;;;11.50;;
12482;SDS011;6306;47.134;15.344;2023-04-08T09:02:27;15.33;;;12.73;;
12482;SDS011;6306;47.134;15.344;2023-04-08T09:05:03;21.50;;;11.93;;
12482;SDS011;6306;47.134;15.344;2023-04-08T09:07:30;13.80;;;11.00;;
12482;SDS011;6306;47.134;15.344;2023-04-08T09:09:56;17.10;;;11.67;;
12482;SDS011;6306;47.134;15.344;2023-04-08T09:12:23;16.43;;;11.23;;
12482;SDS011;6306;47.134;15.344;2023-04-08T09:14:49;15.77;;;11.80;;
12482;SDS011;6306;47.134;15.344;2023-04-08T09:17:30;15.73;;;12.13;;
12482;SDS011;6306;47.134;15.344;2023-04-08T09:20:07;15.60;;;11.60;;
12482;SDS011;6306;47.134;15.344;2023-04-08T09:22:54;16.77;;;13.40;;
12482;SDS011;6306;47.134;15.344;2023-04-08T09:27:50;15.30;;;12.90;;
12482;SDS011;6306;47.134;15.344;2023-04-08T09:30:17;18.37;;;13.40;;
12482;SDS011;6306;47.134;15.344;2023-04-08T09:32:46;20.47;;;14.23;;
12482;SDS011;6306;47.134;15.344;2023-04-08T09:35:13;17.60;;;12.97;;
12482;SDS011;6306;47.134;15.344;2023-04-08T09:37:41;14.50;;;12.47;;
12482;SDS011;6306;47.134;15.344;2023-04-08T09:40:07;12.53;;;11.20;;
12482;SDS011;6306;47.134;15.344;2023-04-08T09:42:33;17.60;;;13.97;;
12482;SDS011;6306;47.134;15.344;2023-04-08T09:45:01;15.33;;;12.60;;
12482;SDS011;6306;47.134;15.344;2023-04-08T09:47:29;16.13;;;12.90;;
12482;SDS011;6306;47.134;15.344;2023-04-08T09:49:57;15.50;;;12.70;;
12482;SDS011;6306;47.134;15.344;2023-04-08T09:52:29;16.00;;;12.87;;
12482;SDS011;6306;47.134;15.344;2023-04-08T09:57:27;14.53;;;12.47;;
12482;SDS011;6306;47.134;15.344;2023-04-08T10:00:14;16.20;;;13.40;;
12482;SDS011;6306;47.134;15.344;2023-04-08T10:05:09;12.27;;;11.00;;
12482;SDS011;6306;47.134;15.344;2023-04-08T10:07:37;13.83;;;10.77;;
12482;SDS011;6306;47.134;15.344;2023-04-08T10:10:04;13.03;;;10.63;;
12482;SDS011;6306;47.134;15.344;2023-04-08T10:12:31;16.30;;;12.80;;
12482;SDS011;6306;47.134;15.344;2023-04-08T10:17:42;10.80;;;9.10;;
12482;SDS011;6306;47.134;15.344;2023-04-08T10:20:30;10.53;;;9.33;;
12482;SDS011;6306;47.134;15.344;2023-04-08T10:22:54;13.40;;;10.60;;
12482;SDS011;6306;47.134;15.344;2023-04-08T10:25:29;9.53;;;8.57;;
12482;SDS011;6306;47.134;15.344;2023-04-08T10:27:56;14.17;;;11.00;;
12482;SDS011;6306;47.134;15.344;2023-04-08T10:32:51;17.67;;;15.90;;
12482;SDS011;6306;47.134;15.344;2023-04-08T10:35:26;17.03;;;13.80;;
12482;SDS011;6306;47.134;15.344;2023-04-08T10:37:53;16.40;;;13.57;;
12482;SDS011;6306;47.134;15.344;2023-04-08T10:40:20;14.63;;;11.57;;
12482;SDS011;6306;47.134;15.344;2023-04-08T10:42:46;14.40;;;12.90;;
12482;SDS011;6306;47.134;15.344;2023-04-08T10:45:18;14.93;;;11.30;;
12482;SDS011;6306;47.134;15.344;2023-04-08T10:47:44;12.30;;;10.03;;
12482;SDS011;6306;47.134;15.344;2023-04-08T10:50:13;14.83;;;13.23;;
12482;SDS011;6306;47.134;15.344;2023-04-08T10:52:49;11.20;;;10.10;;
12482;SDS011;6306;47.134;15.344;2023-04-08T10:55:16;7.97;;;7.17;;
12482;SDS011;6306;47.134;15.344;2023-04-08T10:57:42;14.00;;;11.03;;
12482;SDS011;6306;47.134;15.344;2023-04-08T11:00:14;13.90;;;12.20;;
12482;SDS011;6306;47.134;15.344;2023-04-08T11:02:42;14.63;;;11.20;;
12482;SDS011;6306;47.134;15.344;2023-04-08T11:05:11;12.50;;;8.87;;
12482;SDS011;6306;47.134;15.344;2023-04-08T11:07:40;11.60;;;10.33;;
12482;SDS011;6306;47.134;15.344;2023-04-08T11:10:07;10.27;;;8.00;;
12482;SDS011;6306;47.134;15.344;2023-04-08T11:12:33;9.20;;;7.40;;
12482;SDS011;6306;47.134;15.344;2023-04-08T11:15:01;12.03;;;10.00;;
12482;SDS011;6306;47.134;15.344;2023-04-08T11:17:28;11.30;;;9.80;;
12482;SDS011;6306;47.134;15.344;2023-04-08T11:19:54;11.70;;;9.40;;
12482;SDS011;6306;47.134;15.344;2023-04-08T11:22:21;12.77;;;10.60;;
12482;SDS011;6306;47.134;15.344;2023-04-08T11:24:48;10.50;;;8.93;;
12482;SDS011;6306;47.134;15.344;2023-04-08T11:27:14;10.77;;;9.33;;
12482;SDS011;6306;47.134;15.344;2023-04-08T11:29:40;10.00;;;9.00;;
12482;SDS011;6306;47.134;15.344;2023-04-08T11:32:07;10.57;;;9.40;;
12482;SDS011;6306;47.134;15.344;2023-04-08T11:34:35;12.90;;;10.50;;
12482;SDS011;6306;47.134;15.344;2023-04-08T11:37:05;9.43;;;8.00;;
12482;SDS011;6306;47.134;15.344;2023-04-08T11:39:31;13.23;;;10.23;;
12482;SDS011;6306;47.134;15.344;2023-04-08T11:41:57;11.97;;;9.07;;
12482;SDS011;6306;47.134;15.344;2023-04-08T11:44:30;10.83;;;9.53;;
12482;SDS011;6306;47.134;15.344;2023-04-08T11:46:57;10.50;;;9.40;;
12482;SDS011;6306;47.134;15.344;2023-04-08T11:49:23;8.50;;;7.40;;
12482;SDS011;6306;47.134;15.344;2023-04-08T11:51:56;9.30;;;8.37;;
12482;SDS011;6306;47.134;15.344;2023-04-08T11:54:26;10.40;;;8.37;;
12482;SDS011;6306;47.134;15.344;2023-04-08T11:56:53;10.50;;;8.30;;
12482;SDS011;6306;47.134;15.344;2023-04-08T11:59:20;11.57;;;9.60;;
12482;SDS011;6306;47.134;15.344;2023-04-08T12:01:46;10.93;;;9.80;;
12482;SDS011;6306;47.134;15.344;2023-04-08T12:04:12;7.80;;;7.10;;
12482;SDS011;6306;47.134;15.344;2023-04-08T12:06:38;9.43;;;8.43;;
12482;SDS011;6306;47.134;15.344;2023-04-08T12:09:07;11.37;;;10.20;;
12482;SDS011;6306;47.134;15.344;2023-04-08T12:11:33;11.80;;;10.60;;
12482;SDS011;6306;47.134;15.344;2023-04-08T12:13:59;11.80;;;10.00;;
12482;SDS011;6306;47.134;15.344;2023-04-08T12:16:25;10.33;;;9.33;;
12482;SDS011;6306;47.134;15.344;2023-04-08T12:18:51;6.87;;;6.27;;
12482;SDS011;6306;47.134;15.344;2023-04-08T12:21:17;9.73;;;8.73;;
12482;SDS011;6306;47.134;15.344;2023-04-08T12:23:43;11.13;;;10.10;;
12482;SDS011;6306;47.134;15.344;2023-04-08T12:26:09;12.10;;;10.83;;
12482;SDS011;6306;47.134;15.344;2023-04-08T12:28:36;11.20;;;10.10;;
12482;SDS011;6306;47.134;15.344;2023-04-08T12:31:02;12.57;;;11.27;;
12482;SDS011;6306;47.134;15.344;2023-04-08T12:33:28;11.83;;;10.63;;
12482;SDS011;6306;47.134;15.344;2023-04-08T12:35:54;12.50;;;11.20;;
12482;SDS011;6306;47.134;15.344;2023-04-08T12:38:23;12.10;;;10.90;;
12482;SDS011;6306;47.134;15.344;2023-04-08T12:40:49;10.80;;;9.57;;
12482;SDS011;6306;47.134;15.344;2023-04-08T12:43:15;14.60;;;11.20;;
12482;SDS011;6306;47.134;15.344;2023-04-08T12:45:41;13.07;;;9.43;;
12482;SDS011;6306;47.134;15.344;2023-04-08T12:48:07;14.57;;;10.50;;
12482;SDS011;6306;47.134;15.344;2023-04-08T12:50:33;12.33;;;9.70;;
12482;SDS011;6306;47.134;15.344;2023-04-08T12:52:59;10.83;;;8.50;;
12482;SDS011;6306;47.134;15.344;2023-04-08T12:55:26;9.27;;;8.33;;
12482;SDS011;6306;47.134;15.344;2023-04-08T12:57:52;12.00;;;9.97;;
12482;SDS011;6306;47.134;15.344;2023-04-08T13:00:18;10.33;;;9.30;;
12482;SDS011;6306;47.134;15.344;2023-04-08T13:02:44;10.07;;;9.00;;
12482;SDS011;6306;47.134;15.344;2023-04-08T13:05:10;8.63;;;7.47;;
12482;SDS011;6306;47.134;15.344;2023-04-08T13:07:36;9.97;;;9.00;;
12482;SDS011;6306;47.134;15.344;2023-04-08T13:10:03;11.73;;;9.00;;
12482;SDS011;6306;47.134;15.344;2023-04-08T13:12:30;12.43;;;10.00;;
12482;SDS011;6306;47.134;15.344;2023-04-08T13:14:57;9.87;;;8.87;;
12482;SDS011;6306;47.134;15.344;2023-04-08T13:17:24;9.13;;;8.27;;
12482;SDS011;6306;47.134;15.344;2023-04-08T13:19:50;10.13;;;9.10;;
12482;SDS011;6306;47.134;15.344;2023-04-08T13:22:16;9.30;;;8.40;;
12482;SDS011;6306;47.134;15.344;2023-04-08T13:24:42;11.50;;;9.57;;
12482;SDS011;6306;47.134;15.344;2023-04-08T13:27:08;12.27;;;10.10;;
12482;SDS011;6306;47.134;15.344;2023-04-08T13:29:34;12.20;;;10.93;;
12482;SDS011;6306;47.134;15.344;2023-04-08T13:32:00;10.50;;;9.43;;
12482;SDS011;6306;47.134;15.344;2023-04-08T13:34:26;11.50;;;10.33;;
12482;SDS011;6306;47.134;15.344;2023-04-08T13:36:52;10.63;;;9.47;;
12482;SDS011;6306;47.134;15.344;2023-04-08T13:39:18;10.03;;;8.60;;
12482;SDS011;6306;47.134;15.344;2023-04-08T13:41:44;12.10;;;10.20;;
12482;SDS011;6306;47.134;15.344;2023-04-08T13:44:11;11.23;;;10.13;;
12482;SDS011;6306;47.134;15.344;2023-04-08T13:46:37;12.13;;;10.30;;
12482;SDS011;6306;47.134;15.344;2023-04-08T13:49:03;11.70;;;9.80;;
12482;SDS011;6306;47.134;15.344;2023-04-08T13:51:29;8.50;;;7.23;;
12482;SDS011;6306;47.134;15.344;2023-04-08T13:53:55;12.90;;;10.60;;
12482;SDS011;6306;47.134;15.344;2023-04-08T13:56:21;11.53;;;9.23;;
12482;SDS011;6306;47.134;15.344;2023-04-08T13:58:47;11.77;;;9.83;;
12482;SDS011;6306;47.134;15.344;2023-04-08T14:01:13;13.93;;;10.47;;
12482;SDS011;6306;47.134;15.344;2023-04-08T14:03:40;9.60;;;8.50;;
12482;SDS011;6306;47.134;15.344;2023-04-08T14:06:06;13.17;;;11.07;;
12482;SDS011;6306;47.134;15.344;2023-04-08T14:08:32;11.20;;;9.00;;
12482;SDS011;6306;47.134;15.344;2023-04-08T14:10:58;15.67;;;11.80;;
12482;SDS011;6306;47.134;15.344;2023-04-08T14:13:24;13.43;;;11.90;;
12482;SDS011;6306;47.134;15.344;2023-04-08T14:15:50;13.90;;;10.70;;
12482;SDS011;6306;47.134;15.344;2023-04-08T14:18:19;14.03;;;10.60;;
12482;SDS011;6306;47.134;15.344;2023-04-08T14:20:45;14.47;;;11.30;;
12482;SDS011;6306;47.134;15.344;2023-04-08T14:23:11;14.40;;;11.83;;
12482;SDS011;6306;47.134;15.344;2023-04-08T14:25:37;15.40;;;11.97;;
12482;SDS011;6306;47.134;15.344;2023-04-08T14:28:03;13.80;;;10.90;;
12482;SDS011;6306;47.134;15.344;2023-04-08T14:30:30;13.37;;;10.53;;
12482;SDS011;6306;47.134;15.344;2023-04-08T14:32:56;11.13;;;9.03;;
12482;SDS011;6306;47.134;15.344;2023-04-08T14:35:23;14.47;;;10.60;;
12482;SDS011;6306;47.134;15.344;2023-04-08T14:37:49;16.50;;;12.23;;
12482;SDS011;6306;47.134;15.344;2023-04-08T14:40:15;13.27;;;10.93;;
12482;SDS011;6306;47.134;15.344;2023-04-08T14:42:41;14.47;;;11.90;;
12482;SDS011;6306;47.134;15.344;2023-04-08T14:45:09;14.27;;;10.73;;
12482;SDS011;6306;47.134;15.344;2023-04-08T14:47:35;12.60;;;10.10;;